Time;durP1;ratioP1;P1;durP2;ratioP2;P2;SDS_P1;SDS_P2;PMS_P1;PMS_P2;Temp;Humidity;BMP_temperature;BMP_pressure;BME280_temperature;BME280_humidity;BME280_pressure;Samples;Min_cycle;Max_cycle;Signal;HPM_P1;HPM_P2
2022/04/09 11:08:49;;;;;;;6.15;1.30;;;8.50;73.40;;;;;;5076986;27;20387;-50
2022/04/09 11:11:16;;;;;;;4.82;1.55;;;8.50;69.70;;;;;;5078962;28;20084;-48
2022/04/09 11:13:43;;;;;;;5.40;1.27;;;8.70;68.10;;;;;;5069005;28;20036;-47
2022/04/09 11:16:10;;;;;;;5.10;1.20;;;8.90;63.70;;;;;;5070257;28;20395;-52
2022/04/09 11:18:37;;;;;;;3.00;1.13;;;9.00;63.20;;;;;;5069814;28;20045;-50
2022/04/09 11:21:04;;;;;;;4.68;1.10;;;9.00;62.30;;;;;;5069925;28;20380;-48
2022/04/09 11:23:30;;;;;;;3.50;1.10;;;9.10;62.60;;;;;;5069904;28;20083;-50
2022/04/09 11:25:57;;;;;;;6.53;1.15;;;9.10;57.60;;;;;;5075705;28;20064;-50
2022/04/09 11:28:24;;;;;;;5.13;1.60;;;9.20;59.10;;;;;;5069538;28;20503;-55
2022/04/09 11:30:51;;;;;;;3.50;1.10;;;9.20;62.40;;;;;;5069805;28;20914;-48
2022/04/09 11:33:18;;;;;;;4.80;1.40;;;9.30;57.70;;;;;;5069760;28;20127;-53
2022/04/09 11:35:48;;;;;;;4.93;1.05;;;9.30;61.50;;;;;;5069702;28;20043;-50
2022/04/09 11:38:16;;;;;;;6.28;1.40;;;9.30;61.40;;;;;;5068308;28;20150;-55
2022/04/09 11:40:46;;;;;;;2.85;1.02;;;9.30;64.70;;;;;;5069682;28;20040;-48
2022/04/09 11:43:14;;;;;;;4.40;1.27;;;9.50;61.90;;;;;;5069576;28;20116;-47
2022/04/09 11:45:40;;;;;;;4.65;1.40;;;9.60;62.30;;;;;;5069372;28;20094;-51
2022/04/09 11:48:07;;;;;;;5.15;1.20;;;9.60;64.00;;;;;;5069285;28;20037;-53
2022/04/09 11:50:34;;;;;;;6.40;1.30;;;9.60;63.70;;;;;;5069601;28;20368;-52
2022/04/09 11:53:01;;;;;;;4.00;1.20;;;9.60;64.50;;;;;;5069373;28;20036;-54
2022/04/09 11:55:28;;;;;;;7.80;1.40;;;9.70;66.00;;;;;;5070422;28;20041;-53
2022/04/09 11:57:56;;;;;;;5.72;1.35;;;9.90;60.50;;;;;;5069024;28;20044;-52
2022/04/09 12:00:27;;;;;;;5.10;1.73;;;9.80;59.10;;;;;;5069024;28;20072;-55
2022/04/09 12:02:54;;;;;;;4.35;1.20;;;9.80;60.30;;;;;;5069262;28;20041;-52
2022/04/09 12:05:21;;;;;;;5.00;1.17;;;9.90;60.00;;;;;;5069261;28;20045;-50
2022/04/09 12:07:48;;;;;;;3.95;1.23;;;10.00;60.60;;;;;;5068953;28;20511;-54
2022/04/09 12:10:14;;;;;;;4.88;1.10;;;10.00;61.30;;;;;;5071124;28;20115;-52
2022/04/09 12:12:41;;;;;;;4.88;1.45;;;10.00;60.30;;;;;;5068917;28;20090;-51
2022/04/09 12:15:08;;;;;;;3.08;1.10;;;9.90;58.20;;;;;;5068764;28;20071;-54
2022/04/09 12:17:35;;;;;;;3.65;1.25;;;9.70;57.80;;;;;;5068519;28;20048;-49
2022/04/09 12:20:04;;;;;;;4.53;1.27;;;9.80;59.90;;;;;;5057024;28;20434;-54
2022/04/09 12:22:30;;;;;;;5.10;1.40;;;9.90;58.80;;;;;;5055761;28;20044;-50
2022/04/09 12:24:57;;;;;;;4.10;1.20;;;10.00;59.40;;;;;;5055827;28;20045;-49
2022/04/09 12:27:24;;;;;;;4.07;1.20;;;10.00;56.90;;;;;;5059535;28;20047;-47
2022/04/09 12:29:51;;;;;;;4.22;1.38;;;10.10;57.20;;;;;;5055956;28;20040;-51
2022/04/09 12:32:19;;;;;;;4.72;1.70;;;10.30;57.90;;;;;;5055755;28;20049;-52
2022/04/09 12:34:46;;;;;;;5.93;1.20;;;10.40;56.60;;;;;;5056060;28;20087;-51
2022/04/09 12:37:13;;;;;;;4.18;1.23;;;10.40;58.90;;;;;;5055558;28;20084;-48
2022/04/09 12:39:40;;;;;;;3.83;1.05;;;10.50;58.60;;;;;;5055652;28;20072;-49
2022/04/09 12:42:07;;;;;;;4.55;1.38;;;10.50;58.50;;;;;;5055433;28;20037;-50
2022/04/09 12:44:33;;;;;;;3.53;1.20;;;10.50;57.90;;;;;;5055624;28;20099;-46
2022/04/09 12:47:00;;;;;;;3.50;1.00;;;10.50;56.00;;;;;;5055465;28;20045;-52
2022/04/09 12:49:27;;;;;;;5.95;1.45;;;10.60;56.00;;;;;;5055374;28;20079;-50
2022/04/09 12:51:54;;;;;;;4.75;1.20;;;10.70;55.10;;;;;;5054130;28;20411;-52
2022/04/09 12:54:21;;;;;;;3.78;1.30;;;10.70;52.30;;;;;;5055336;28;20541;-50
2022/04/09 12:56:51;;;;;;;7.00;1.10;;;10.80;52.80;;;;;;5056264;28;20043;-52
2022/04/09 12:59:20;;;;;;;4.43;1.17;;;10.90;53.50;;;;;;5055407;28;20121;-50
2022/04/09 13:01:48;;;;;;;3.55;1.10;;;11.20;52.70;;;;;;5054906;28;20045;-51
2022/04/09 13:04:15;;;;;;;3.88;1.23;;;11.20;52.10;;;;;;5055221;28;20059;-47
2022/04/09 13:06:42;;;;;;;4.38;1.20;;;11.20;51.90;;;;;;5059898;28;20079;-51
2022/04/09 13:09:09;;;;;;;3.95;1.00;;;11.10;51.50;;;;;;5055107;28;20567;-49
2022/04/09 13:11:36;;;;;;;4.80;1.33;;;11.10;52.90;;;;;;5054678;28;20060;-55
2022/04/09 13:14:03;;;;;;;4.63;1.30;;;11.10;53.60;;;;;;5058549;28;20036;-49
2022/04/09 13:16:29;;;;;;;4.75;1.25;;;11.10;56.00;;;;;;5054814;28;20055;-51
2022/04/09 13:18:57;;;;;;;5.07;1.40;;;11.10;54.40;;;;;;5054555;28;20037;-48
2022/04/09 13:21:24;;;;;;;5.53;1.45;;;11.20;56.00;;;;;;5058504;28;20090;-52
2022/04/09 13:23:51;;;;;;;6.40;1.40;;;11.30;54.80;;;;;;5054798;28;20064;-49
2022/04/09 13:26:18;;;;;;;4.93;1.30;;;11.20;52.20;;;;;;5054695;28;20483;-46
2022/04/09 13:28:44;;;;;;;4.55;1.10;;;11.20;49.30;;;;;;5054897;28;20084;-53
2022/04/09 13:31:11;;;;;;;7.72;1.20;;;11.10;49.50;;;;;;5053699;28;20393;-46
2022/04/09 13:33:38;;;;;;;4.65;1.25;;;11.20;51.70;;;;;;5054551;28;20068;-50
2022/04/09 13:36:05;;;;;;;6.95;1.40;;;11.50;51.60;;;;;;5054587;28;20071;-53
2022/04/09 13:38:32;;;;;;;4.72;1.30;;;11.70;49.40;;;;;;5054444;28;20084;-49
2022/04/09 13:40:58;;;;;;;4.47;1.10;;;11.70;50.30;;;;;;5053106;28;20056;-49
2022/04/09 13:43:25;;;;;;;5.10;1.40;;;11.60;47.10;;;;;;5057696;28;20068;-47
2022/04/09 13:45:52;;;;;;;6.32;1.98;;;11.50;49.90;;;;;;5054559;28;20051;-51
2022/04/09 13:48:19;;;;;;;5.50;2.00;;;11.60;50.80;;;;;;5054410;28;20159;-48
2022/04/09 13:50:47;;;;;;;4.80;1.30;;;11.60;49.10;;;;;;5054243;28;20487;-46
2022/04/09 13:53:15;;;;;;;4.90;1.63;;;11.60;48.90;;;;;;5045636;28;20072;-50
2022/04/09 13:55:44;;;;;;;6.40;1.70;;;11.50;48.70;;;;;;5054406;28;20110;-50
2022/04/09 13:58:10;;;;;;;8.20;1.20;;;11.30;49.10;;;;;;5054112;28;20041;-47
2022/04/09 14:00:37;;;;;;;5.32;1.17;;;11.40;49.60;;;;;;5054298;28;20444;-48
2022/04/09 14:03:04;;;;;;;6.45;1.50;;;11.40;50.30;;;;;;5053914;28;20048;-51
2022/04/09 14:05:31;;;;;;;5.80;1.33;;;11.50;50.80;;;;;;5054217;28;20103;-48
2022/04/09 14:07:58;;;;;;;4.68;1.30;;;11.60;46.10;;;;;;5053800;28;20126;-50
2022/04/09 14:10:24;;;;;;;4.07;1.30;;;11.40;44.30;;;;;;5057995;28;20049;-48
2022/04/09 14:12:51;;;;;;;7.30;1.40;;;11.50;46.20;;;;;;5047418;28;20117;-49
2022/04/09 14:15:18;;;;;;;4.18;1.15;;;11.50;45.50;;;;;;5053743;28;20068;-49
2022/04/09 14:17:45;;;;;;;4.47;1.05;;;11.40;45.90;;;;;;5053800;28;20120;-50
2022/04/09 14:20:12;;;;;;;4.93;1.45;;;11.30;47.60;;;;;;5053931;28;20047;-51
2022/04/09 14:22:39;;;;;;;4.50;1.30;;;11.40;47.30;;;;;;5053898;28;20502;-51
2022/04/09 14:25:06;;;;;;;3.20;1.08;;;11.40;46.40;;;;;;5053662;28;20043;-48
2022/04/09 14:27:33;;;;;;;3.90;1.40;;;11.40;44.60;;;;;;5053669;28;20072;-47
2022/04/09 14:30:00;;;;;;;4.57;1.20;;;11.20;44.80;;;;;;5053543;28;20033;-52
2022/04/09 14:32:27;;;;;;;6.38;1.55;;;11.10;46.40;;;;;;5052294;28;20103;-51
2022/04/09 14:34:53;;;;;;;4.07;1.25;;;11.00;48.10;;;;;;5053437;28;20044;-46
2022/04/09 14:37:20;;;;;;;4.78;1.35;;;10.90;49.80;;;;;;5053243;28;20086;-46
2022/04/09 14:39:47;;;;;;;6.22;1.75;;;10.80;47.40;;;;;;5053393;28;20495;-52
2022/04/09 14:42:14;;;;;;;3.63;1.02;;;10.80;48.40;;;;;;5051976;28;20129;-47
2022/04/09 14:44:40;;;;;;;3.50;1.30;;;10.80;49.00;;;;;;5053335;28;20041;-47
2022/04/09 14:47:07;;;;;;;3.70;1.40;;;10.90;49.00;;;;;;5053425;28;20040;-47
2022/04/09 14:49:34;;;;;;;5.05;1.30;;;11.00;45.50;;;;;;5052080;28;20051;-47
2022/04/09 14:52:02;;;;;;;4.28;1.40;;;11.00;44.60;;;;;;5052862;28;20345;-44
2022/04/09 14:54:29;;;;;;;4.40;1.33;;;11.00;46.40;;;;;;5053145;28;20041;-52
2022/04/09 14:56:55;;;;;;;5.93;1.50;;;11.00;47.10;;;;;;5053152;28;20103;-49
2022/04/09 14:59:22;;;;;;;4.55;1.50;;;11.00;47.80;;;;;;5053888;28;20041;-47
2022/04/09 15:01:49;;;;;;;7.10;1.60;;;11.00;49.90;;;;;;5052859;28;20075;-53
2022/04/09 15:04:16;;;;;;;3.92;1.20;;;11.00;49.90;;;;;;5053119;28;20033;-50
2022/04/09 15:06:42;;;;;;;3.53;1.20;;;11.00;51.00;;;;;;5052851;28;20072;-51
2022/04/09 15:09:09;;;;;;;5.95;1.30;;;11.00;52.90;;;;;;5056771;28;20127;-52
2022/04/09 15:11:36;;;;;;;3.47;1.30;;;11.00;50.30;;;;;;5052984;28;20102;-53
2022/04/09 15:14:05;;;;;;;5.82;1.52;;;11.00;50.70;;;;;;5053021;28;20041;-52
2022/04/09 15:16:32;;;;;;;4.35;1.70;;;11.00;49.00;;;;;;5051687;28;20437;-53
2022/04/09 15:18:59;;;;;;;4.93;1.33;;;10.90;45.20;;;;;;5051577;28;20409;-48
2022/04/09 15:21:25;;;;;;;5.25;1.48;;;11.00;44.70;;;;;;5052773;28;20041;-53
2022/04/09 15:23:52;;;;;;;2.67;1.20;;;11.10;48.20;;;;;;5052851;28;20047;-51
2022/04/09 15:26:19;;;;;;;3.97;1.10;;;11.30;47.30;;;;;;5055664;28;20033;-46
2022/04/09 15:28:46;;;;;;;4.50;1.30;;;11.40;48.00;;;;;;5052775;28;20562;-50
2022/04/09 15:31:12;;;;;;;4.32;1.02;;;11.50;46.70;;;;;;5052811;28;20748;-51
2022/04/09 15:33:39;;;;;;;2.67;0.90;;;11.60;45.10;;;;;;5052818;28;20048;-53
2022/04/09 15:36:06;;;;;;;3.80;1.27;;;11.60;42.40;;;;;;5053012;28;20098;-52
2022/04/09 15:38:33;;;;;;;2.60;1.00;;;11.50;44.70;;;;;;5052574;28;20037;-52
2022/04/09 15:41:00;;;;;;;3.92;1.08;;;11.60;45.30;;;;;;5052772;28;20041;-49
2022/04/09 15:43:27;;;;;;;3.25;1.30;;;11.50;45.80;;;;;;5052604;28;20479;-49
2022/04/09 15:45:54;;;;;;;5.97;1.40;;;11.40;44.70;;;;;;5052694;28;20434;-52
2022/04/09 15:48:20;;;;;;;5.38;1.40;;;11.30;44.90;;;;;;5052636;28;20075;-51
2022/04/09 15:50:47;;;;;;;4.45;1.23;;;11.30;46.00;;;;;;5052594;28;20098;-51
2022/04/09 15:53:14;;;;;;;3.25;1.00;;;11.20;45.70;;;;;;5055362;28;20510;-49
2022/04/09 15:55:42;;;;;;;6.28;1.27;;;11.20;45.60;;;;;;5056333;28;20079;-49
2022/04/09 15:58:09;;;;;;;5.45;1.90;;;11.20;46.00;;;;;;5056261;28;20480;-50
2022/04/09 16:00:36;;;;;;;3.60;1.30;;;11.20;45.90;;;;;;5056428;28;20538;-51
2022/04/09 16:03:02;;;;;;;4.88;1.40;;;11.30;46.40;;;;;;5056227;28;20564;-49
2022/04/09 16:05:29;;;;;;;4.78;1.25;;;11.30;47.10;;;;;;5054935;28;20099;-52
2022/04/09 16:07:56;;;;;;;4.47;1.58;;;11.30;46.00;;;;;;5056007;28;20049;-50
2022/04/09 16:10:23;;;;;;;7.10;2.30;;;11.40;47.10;;;;;;5060878;28;20107;-49
2022/04/09 16:12:49;;;;;;;5.90;2.17;;;11.40;46.40;;;;;;5056095;28;20446;-50
2022/04/09 16:15:16;;;;;;;5.43;1.98;;;11.40;46.50;;;;;;5054770;28;20060;-52
2022/04/09 16:17:43;;;;;;;4.32;1.65;;;11.50;47.40;;;;;;5061474;28;20499;-50
2022/04/09 16:20:10;;;;;;;4.32;1.25;;;11.60;47.20;;;;;;5056170;28;20045;-47
2022/04/09 16:22:37;;;;;;;5.28;1.70;;;11.70;45.80;;;;;;5055855;28;20037;-49
2022/04/09 16:25:04;;;;;;;7.40;1.50;;;11.80;45.90;;;;;;5054964;28;20041;-50
2022/04/09 16:27:31;;;;;;;4.88;2.08;;;11.70;45.40;;;;;;5055679;28;20111;-51
2022/04/09 16:30:00;;;;;;;3.22;1.27;;;11.90;45.90;;;;;;5055748;28;20045;-48
2022/04/09 16:32:28;;;;;;;5.05;1.65;;;11.80;44.90;;;;;;5055337;28;20124;-52
2022/04/09 16:34:55;;;;;;;3.33;1.23;;;11.90;44.50;;;;;;5055919;28;20079;-48
2022/04/09 16:37:22;;;;;;;5.20;1.30;;;12.00;44.40;;;;;;5060288;28;20425;-47
2022/04/09 16:39:49;;;;;;;5.95;1.80;;;12.10;44.90;;;;;;5055388;28;20040;-51
2022/04/09 16:42:16;;;;;;;3.40;1.40;;;12.00;44.40;;;;;;5058317;28;20032;-49
2022/04/09 16:44:43;;;;;;;6.97;2.10;;;11.90;44.90;;;;;;5055381;28;20648;-48
2022/04/09 16:47:10;;;;;;;4.85;1.65;;;11.70;45.10;;;;;;5055431;28;20117;-51
2022/04/09 16:49:39;;;;;;;6.97;1.75;;;11.60;46.20;;;;;;5057614;28;20124;-49
2022/04/09 16:52:06;;;;;;;7.03;1.83;;;11.50;46.30;;;;;;5049028;28;20073;-51
2022/04/09 16:54:33;;;;;;;4.82;2.08;;;11.40;43.90;;;;;;5055244;28;20045;-51
2022/04/09 16:56:59;;;;;;;7.35;2.70;;;11.30;45.10;;;;;;5048668;28;20380;-50
2022/04/09 16:59:26;;;;;;;4.35;1.50;;;11.30;46.20;;;;;;5056170;28;20090;-45
2022/04/09 17:01:53;;;;;;;4.05;1.48;;;11.20;46.20;;;;;;5055158;28;20037;-48
2022/04/09 17:04:20;;;;;;;5.00;1.55;;;11.20;45.60;;;;;;5055425;28;20099;-51
2022/04/09 17:06:48;;;;;;;5.57;1.83;;;11.20;46.20;;;;;;5054863;28;20472;-50
2022/04/09 17:09:16;;;;;;;4.93;1.48;;;11.20;46.40;;;;;;5059772;28;20067;-49
2022/04/09 17:11:42;;;;;;;6.13;1.83;;;11.20;47.30;;;;;;5055202;28;20045;-50
2022/04/09 17:14:10;;;;;;;4.57;2.10;;;11.60;45.80;;;;;;5054879;28;20077;-51
2022/04/09 17:16:40;;;;;;;5.50;2.38;;;12.20;45.90;;;;;;5054863;28;20045;-49
2022/04/09 17:19:07;;;;;;;7.13;2.00;;;12.70;44.80;;;;;;5059372;28;20083;-50
2022/04/09 17:21:33;;;;;;;5.15;1.50;;;13.00;43.90;;;;;;5054646;28;20072;-49
2022/04/09 17:24:00;;;;;;;5.88;1.70;;;13.20;42.80;;;;;;5058898;28;20091;-51
2022/04/09 17:26:27;;;;;;;3.55;1.40;;;13.20;43.30;;;;;;5053462;28;20051;-51
2022/04/09 17:28:54;;;;;;;5.10;1.70;;;13.20;42.70;;;;;;5054690;28;20037;-47
2022/04/09 17:31:20;;;;;;;4.13;1.67;;;13.40;43.70;;;;;;5054855;28;20163;-53
2022/04/09 17:33:47;;;;;;;6.22;2.10;;;13.50;42.70;;;;;;5053456;28;20466;-52
2022/04/09 17:36:14;;;;;;;5.25;1.60;;;13.60;42.30;;;;;;5054565;28;20048;-53
2022/04/09 17:38:41;;;;;;;4.32;1.40;;;13.70;42.00;;;;;;5054383;28;20037;-50
2022/04/09 17:41:08;;;;;;;4.95;1.60;;;13.90;41.80;;;;;;5059026;28;20037;-52
2022/04/09 17:43:35;;;;;;;5.97;1.75;;;14.00;40.80;;;;;;5054349;28;20043;-50
2022/04/09 17:46:02;;;;;;;3.40;1.40;;;14.10;41.40;;;;;;5054389;28;20045;-47
2022/04/09 17:48:29;;;;;;;5.38;1.48;;;14.20;41.90;;;;;;5060872;28;20103;-47
2022/04/09 17:50:55;;;;;;;3.03;1.27;;;13.80;41.50;;;;;;5054357;28;20069;-48
2022/04/09 17:53:28;;;;;;;3.63;1.77;;;13.30;42.60;;;;;;5056482;28;20033;-47
2022/04/09 17:55:55;;;;;;;8.15;1.73;;;12.80;42.40;;;;;;5054165;28;20044;-53
2022/04/09 17:58:21;;;;;;;5.70;1.75;;;12.50;44.60;;;;;;5055396;28;20043;-51
2022/04/09 18:00:48;;;;;;;6.45;1.90;;;12.20;45.40;;;;;;5055656;28;20124;-47
2022/04/09 18:03:16;;;;;;;4.53;1.67;;;12.10;44.70;;;;;;5053966;28;20044;-48
2022/04/09 18:05:42;;;;;;;4.35;2.00;;;11.90;44.70;;;;;;5053968;28;20036;-52
2022/04/09 18:08:10;;;;;;;5.72;1.92;;;11.70;45.90;;;;;;5058235;28;20464;-53
2022/04/09 18:10:57;;;;;;;4.35;1.80;;;11.70;47.20;;;;;;5053849;28;20118;-51
2022/04/09 18:13:23;;;;;;;5.47;1.55;;;11.60;47.40;;;;;;5053915;28;20083;-51
2022/04/09 18:15:50;;;;;;;6.00;1.50;;;11.40;46.70;;;;;;5047185;28;20072;-50
2022/04/09 18:18:18;;;;;;;7.10;1.95;;;11.30;47.90;;;;;;5054133;28;20064;-56
2022/04/09 18:20:45;;;;;;;5.75;1.67;;;11.20;48.30;;;;;;5053936;28;20047;-51
2022/04/09 18:23:11;;;;;;;5.97;1.85;;;11.10;48.90;;;;;;5053480;28;20079;-50
2022/04/09 18:25:38;;;;;;;7.03;2.33;;;11.00;48.40;;;;;;5058466;28;20042;-50
2022/04/09 18:28:05;;;;;;;5.15;2.00;;;10.90;49.30;;;;;;5053995;28;20099;-51
2022/04/09 18:30:32;;;;;;;8.55;2.03;;;10.90;49.80;;;;;;5053451;28;20044;-50
2022/04/09 18:32:59;;;;;;;6.10;1.95;;;10.80;49.80;;;;;;5053412;28;20395;-52
2022/04/09 18:35:26;;;;;;;5.30;1.55;;;10.80;49.90;;;;;;5053523;28;20041;-51
2022/04/09 18:37:57;;;;;;;4.57;1.67;;;10.70;50.60;;;;;;5053413;28;20053;-51
2022/04/09 18:40:24;;;;;;;6.22;1.83;;;10.60;50.50;;;;;;5053428;28;20123;-51
2022/04/09 18:42:51;;;;;;;3.97;1.70;;;10.60;50.70;;;;;;5053274;28;20033;-53
2022/04/09 18:45:22;;;;;;;8.07;1.95;;;10.50;51.60;;;;;;5053464;28;20087;-49
2022/04/09 18:47:50;;;;;;;5.10;1.40;;;10.40;52.20;;;;;;5052737;28;20033;-52
2022/04/09 18:50:16;;;;;;;8.95;3.33;;;10.30;52.40;;;;;;5053275;28;20052;-51
2022/04/09 18:52:43;;;;;;;6.63;2.53;;;10.20;53.00;;;;;;5056321;28;20075;-52
2022/04/09 18:55:10;;;;;;;7.55;3.40;;;10.20;53.10;;;;;;5053743;28;20107;-51
2022/04/09 18:57:36;;;;;;;8.05;3.50;;;10.00;53.30;;;;;;5052615;28;20063;-52
2022/04/09 19:00:03;;;;;;;7.28;3.97;;;10.00;53.50;;;;;;5053148;28;20463;-55
2022/04/09 19:02:30;;;;;;;10.25;4.70;;;9.90;53.70;;;;;;5053129;28;20099;-54
2022/04/09 19:04:57;;;;;;;11.75;4.22;;;9.90;54.70;;;;;;5053040;28;20033;-54
2022/04/09 19:07:24;;;;;;;10.43;4.60;;;9.90;54.40;;;;;;5055604;28;20064;-49
2022/04/09 19:09:51;;;;;;;9.52;4.28;;;9.80;54.60;;;;;;5053208;28;20044;-51
2022/04/09 19:12:17;;;;;;;10.73;4.03;;;9.80;55.70;;;;;;5058497;28;20091;-58
2022/04/09 19:14:44;;;;;;;8.95;3.78;;;9.80;55.90;;;;;;5053213;28;20053;-56
2022/04/09 19:17:11;;;;;;;8.75;3.92;;;9.70;56.40;;;;;;5057166;28;20103;-56
2022/04/09 19:19:39;;;;;;;10.82;4.25;;;9.70;56.90;;;;;;5055911;28;20033;-53
2022/04/09 19:22:05;;;;;;;8.90;4.07;;;9.60;58.90;;;;;;5052702;28;20041;-59
2022/04/09 19:24:34;;;;;;;9.82;4.85;;;9.70;59.80;;;;;;5053340;28;20090;-53
2022/04/09 19:27:01;;;;;;;13.70;5.32;;;9.60;61.10;;;;;;5053058;28;20461;-54
2022/04/09 19:29:28;;;;;;;11.00;4.80;;;9.60;62.10;;;;;;5054338;28;20116;-55
2022/04/09 19:31:55;;;;;;;8.60;3.97;;;9.50;62.90;;;;;;5056909;28;20045;-51
2022/04/09 19:34:22;;;;;;;10.13;4.35;;;9.50;62.00;;;;;;5059088;28;20396;-53
2022/04/09 19:36:52;;;;;;;6.18;3.20;;;9.50;63.80;;;;;;5056778;28;20072;-52
2022/04/09 19:39:22;;;;;;;8.85;3.38;;;9.40;64.80;;;;;;5056336;28;20094;-53
2022/04/09 19:41:49;;;;;;;8.43;3.63;;;9.40;66.20;;;;;;5056714;28;20094;-51
2022/04/09 19:44:19;;;;;;;8.63;3.80;;;9.40;66.50;;;;;;5061684;28;20057;-52
2022/04/09 19:46:46;;;;;;;9.40;4.30;;;9.30;67.10;;;;;;5056346;28;20048;-53
2022/04/09 19:49:12;;;;;;;10.32;4.32;;;9.30;68.40;;;;;;5056351;28;20072;-55
2022/04/09 19:51:39;;;;;;;9.45;4.00;;;9.30;68.30;;;;;;5055902;28;20098;-49
2022/04/09 19:54:06;;;;;;;6.38;3.42;;;9.30;69.40;;;;;;5054475;28;20053;-50
2022/04/09 19:56:33;;;;;;;9.52;4.43;;;9.30;69.80;;;;;;5056351;28;20072;-48
2022/04/09 19:59:01;;;;;;;10.55;4.95;;;9.20;69.50;;;;;;5059190;28;20403;-51
2022/04/09 20:01:27;;;;;;;14.30;4.90;;;9.20;69.80;;;;;;5056285;28;20041;-50
2022/04/09 20:03:54;;;;;;;11.32;4.90;;;9.20;69.90;;;;;;5057309;28;20429;-49
2022/04/09 20:06:21;;;;;;;11.48;5.15;;;9.20;71.30;;;;;;5056389;28;20036;-50
2022/04/09 20:08:48;;;;;;;13.45;5.07;;;9.20;72.30;;;;;;5062088;28;20119;-49
2022/04/09 20:11:14;;;;;;;9.52;4.80;;;9.20;72.60;;;;;;5056215;28;20128;-51
2022/04/09 20:13:41;;;;;;;9.55;5.22;;;9.20;71.80;;;;;;5055493;28;20116;-51
2022/04/09 20:16:09;;;;;;;9.93;5.00;;;9.20;71.70;;;;;;5055979;28;20045;-51
2022/04/09 20:18:36;;;;;;;9.68;5.15;;;9.10;71.60;;;;;;5055951;28;20041;-53
2022/04/09 20:21:03;;;;;;;10.43;5.50;;;9.10;72.20;;;;;;5055851;28;20033;-50
2022/04/09 20:23:32;;;;;;;12.77;5.95;;;9.10;72.60;;;;;;5056346;28;20041;-48
2022/04/09 20:25:59;;;;;;;14.15;5.78;;;9.10;72.60;;;;;;5059796;28;20039;-50
2022/04/09 20:28:26;;;;;;;11.13;6.25;;;9.00;72.30;;;;;;5054607;28;20073;-50
2022/04/09 20:30:52;;;;;;;11.40;6.18;;;9.00;72.10;;;;;;5055681;28;20103;-52
2022/04/09 20:33:19;;;;;;;13.43;7.05;;;9.00;72.60;;;;;;5055691;28;20461;-51
2022/04/09 20:35:46;;;;;;;13.00;7.40;;;8.90;72.80;;;;;;5055692;28;20075;-51
2022/04/09 20:38:12;;;;;;;11.70;6.00;;;8.90;73.60;;;;;;5055041;28;20048;-53
2022/04/09 20:40:39;;;;;;;11.35;5.82;;;8.80;73.70;;;;;;5054981;28;20454;-52
2022/04/09 20:43:06;;;;;;;10.05;4.60;;;8.70;73.40;;;;;;5055262;28;20037;-55
2022/04/09 20:45:33;;;;;;;11.38;5.10;;;8.70;74.20;;;;;;5055154;28;20045;-49
2022/04/09 20:48:00;;;;;;;7.93;4.22;;;8.60;75.20;;;;;;5054575;28;20116;-54
2022/04/09 20:50:27;;;;;;;8.32;4.57;;;8.50;75.10;;;;;;5055236;28;20514;-48
2022/04/09 20:52:53;;;;;;;10.02;4.50;;;8.40;74.60;;;;;;5053276;28;20072;-50
2022/04/09 20:55:20;;;;;;;9.57;5.00;;;8.40;76.40;;;;;;5053197;28;20383;-51
2022/04/09 20:57:49;;;;;;;10.30;5.13;;;8.40;77.00;;;;;;5054400;28;20049;-50
2022/04/09 21:00:15;;;;;;;10.95;5.45;;;8.30;77.60;;;;;;5054775;28;20124;-54
2022/04/09 21:02:42;;;;;;;11.65;5.45;;;8.30;77.00;;;;;;5054817;28;20040;-49
2022/04/09 21:05:09;;;;;;;11.30;6.50;;;8.30;77.50;;;;;;5053398;28;20056;-51
2022/04/09 21:07:36;;;;;;;10.82;6.00;;;8.30;77.50;;;;;;5054456;28;20144;-50
2022/04/09 21:10:03;;;;;;;11.25;6.70;;;8.30;76.80;;;;;;5054826;28;20048;-48
2022/04/09 21:12:29;;;;;;;10.80;6.05;;;8.40;77.00;;;;;;5054800;28;20415;-54
2022/04/09 21:14:56;;;;;;;12.52;5.90;;;8.40;76.70;;;;;;5055092;28;20391;-51
2022/04/09 21:17:23;;;;;;;14.45;6.40;;;8.40;75.70;;;;;;5054623;28;20041;-48
2022/04/09 21:19:50;;;;;;;12.68;6.80;;;8.40;75.30;;;;;;5054514;28;20037;-49
2022/04/09 21:22:16;;;;;;;15.35;6.65;;;8.40;75.70;;;;;;5054609;28;20064;-55
2022/04/09 21:24:43;;;;;;;13.10;6.68;;;8.40;75.80;;;;;;5054655;28;20033;-49
2022/04/09 21:27:10;;;;;;;15.98;7.55;;;8.30;76.30;;;;;;5054542;28;20102;-52
2022/04/09 21:29:37;;;;;;;16.63;7.60;;;8.30;75.50;;;;;;5058402;28;20052;-52
2022/04/09 21:32:03;;;;;;;12.63;8.32;;;8.20;75.60;;;;;;5054342;28;20064;-53
2022/04/09 21:34:30;;;;;;;13.13;7.65;;;8.20;75.60;;;;;;5054343;28;20056;-52
2022/04/09 21:36:57;;;;;;;14.88;7.95;;;8.20;75.90;;;;;;5053088;28;20095;-51
2022/04/09 21:39:24;;;;;;;14.00;8.20;;;8.20;75.80;;;;;;5054238;28;20045;-53
2022/04/09 21:41:51;;;;;;;13.02;6.78;;;8.20;76.40;;;;;;5054030;28;20068;-48
2022/04/09 21:44:19;;;;;;;13.52;6.45;;;8.20;76.20;;;;;;5054069;28;20147;-51
2022/04/09 21:46:46;;;;;;;10.80;5.93;;;8.20;76.20;;;;;;5054145;28;20049;-50
2022/04/09 21:49:12;;;;;;;11.75;6.82;;;8.20;76.20;;;;;;5053952;28;20041;-52
2022/04/09 21:51:39;;;;;;;15.85;6.88;;;8.20;76.30;;;;;;5053105;28;20041;-51
2022/04/09 21:54:06;;;;;;;16.15;7.90;;;8.20;76.80;;;;;;5053926;28;20044;-56
2022/04/09 21:56:33;;;;;;;16.25;7.38;;;8.20;77.60;;;;;;5053374;28;20075;-50
2022/04/09 21:59:00;;;;;;;15.73;7.57;;;8.20;78.30;;;;;;5059677;28;20047;-49
2022/04/09 22:01:26;;;;;;;13.43;7.13;;;8.30;77.90;;;;;;5053659;28;20072;-47
2022/04/09 22:03:53;;;;;;;10.80;5.72;;;8.30;78.30;;;;;;5054090;28;20041;-49
2022/04/09 22:06:20;;;;;;;13.05;6.15;;;8.20;76.70;;;;;;5052743;28;20045;-50
2022/04/09 22:08:47;;;;;;;12.80;6.07;;;8.20;79.30;;;;;;5053443;28;20060;-54
2022/04/09 22:11:13;;;;;;;13.80;5.93;;;8.20;79.20;;;;;;5054376;28;20080;-53
2022/04/09 22:13:40;;;;;;;13.57;5.88;;;8.10;77.90;;;;;;5053653;28;20369;-50
2022/04/09 22:16:07;;;;;;;9.00;5.57;;;8.10;78.60;;;;;;5053676;28;20049;-50
2022/04/09 22:18:34;;;;;;;9.88;5.85;;;8.10;79.30;;;;;;5047110;28;20550;-50
2022/04/09 22:21:00;;;;;;;12.45;6.38;;;8.00;79.00;;;;;;5045881;28;20037;-51
2022/04/09 22:23:27;;;;;;;10.73;6.03;;;8.00;79.40;;;;;;5053707;28;20041;-49
2022/04/09 22:25:54;;;;;;;12.55;5.90;;;8.00;80.50;;;;;;5053611;28;20040;-49
2022/04/09 22:28:20;;;;;;;10.93;6.07;;;8.00;79.60;;;;;;5053596;28;20048;-49
2022/04/09 22:30:47;;;;;;;10.93;5.93;;;8.00;79.80;;;;;;5053528;28;20090;-47
2022/04/09 22:33:14;;;;;;;13.55;6.70;;;8.00;79.80;;;;;;5053622;28;20045;-51
2022/04/09 22:35:41;;;;;;;10.20;5.72;;;7.90;79.70;;;;;;5053388;28;20411;-49
2022/04/09 22:38:08;;;;;;;11.85;5.70;;;7.90;78.90;;;;;;5053296;28;20064;-50
2022/04/09 22:40:34;;;;;;;9.60;5.88;;;7.90;78.60;;;;;;5056921;28;20045;-48
2022/04/09 22:43:01;;;;;;;16.13;6.18;;;7.90;79.10;;;;;;5053415;28;20111;-54
2022/04/09 22:45:28;;;;;;;13.25;5.82;;;7.90;79.10;;;;;;5053246;28;20037;-51
2022/04/09 22:47:55;;;;;;;12.15;5.95;;;7.90;78.70;;;;;;5053496;28;20503;-51
2022/04/09 22:50:21;;;;;;;10.73;6.15;;;7.80;78.70;;;;;;5053341;28;20503;-50
2022/04/09 22:52:49;;;;;;;9.77;6.05;;;7.70;79.40;;;;;;5052913;28;20041;-52
2022/04/09 22:55:16;;;;;;;12.75;6.55;;;7.70;79.30;;;;;;5053089;28;20045;-48
2022/04/09 22:57:43;;;;;;;13.55;6.53;;;7.60;79.40;;;;;;5052668;28;20395;-47
2022/04/09 23:00:09;;;;;;;13.15;6.15;;;7.60;80.00;;;;;;5053760;28;20037;-49
2022/04/09 23:02:36;;;;;;;12.60;6.13;;;7.60;80.30;;;;;;5052763;28;20041;-48
2022/04/09 23:05:03;;;;;;;12.43;6.30;;;7.60;81.70;;;;;;5053076;28;20547;-49
2022/04/09 23:07:31;;;;;;;14.10;7.22;;;7.50;81.90;;;;;;5052716;28;20053;-51
2022/04/09 23:09:58;;;;;;;16.02;8.60;;;7.40;83.90;;;;;;5053078;28;20045;-48
2022/04/09 23:12:24;;;;;;;17.00;9.32;;;7.40;84.90;;;;;;5052830;28;20044;-55
2022/04/09 23:14:51;;;;;;;15.40;9.68;;;7.40;84.70;;;;;;5053146;28;20041;-52
2022/04/09 23:17:18;;;;;;;17.70;9.68;;;7.30;84.90;;;;;;5051710;28;20052;-49
2022/04/09 23:19:45;;;;;;;18.27;9.48;;;7.30;85.10;;;;;;5052794;28;20075;-51
2022/04/09 23:22:12;;;;;;;16.58;9.40;;;7.20;85.00;;;;;;5052622;28;20045;-55
2022/04/09 23:24:38;;;;;;;17.63;9.32;;;7.20;85.80;;;;;;5051641;28;20073;-51
2022/04/09 23:27:05;;;;;;;20.80;10.95;;;7.10;86.20;;;;;;5052908;28;20048;-53
2022/04/09 23:29:32;;;;;;;22.10;11.25;;;7.10;87.20;;;;;;5056011;28;20425;-50
2022/04/09 23:31:58;;;;;;;24.67;11.57;;;7.00;86.70;;;;;;5052846;28;20037;-51
2022/04/09 23:34:25;;;;;;;22.85;11.35;;;6.90;87.00;;;;;;5051724;28;20395;-49
2022/04/09 23:36:52;;;;;;;22.27;11.50;;;6.80;88.20;;;;;;5052094;28;20045;-53
2022/04/09 23:39:19;;;;;;;19.23;8.23;;;6.80;87.90;;;;;;5052146;28;20083;-53
2022/04/09 23:41:45;;;;;;;12.35;7.45;;;6.70;86.90;;;;;;5053062;28;20403;-49
2022/04/09 23:44:14;;;;;;;11.57;6.65;;;6.60;86.10;;;;;;5052698;28;20120;-52
2022/04/09 23:46:40;;;;;;;14.10;6.80;;;6.60;85.40;;;;;;5052855;28;20037;-47
2022/04/09 23:49:07;;;;;;;13.63;6.53;;;6.50;86.50;;;;;;5052665;28;20123;-51
2022/04/09 23:51:34;;;;;;;14.32;7.15;;;6.50;86.20;;;;;;5052748;28;20373;-48
2022/04/09 23:54:01;;;;;;;14.50;8.25;;;6.40;86.00;;;;;;5052552;28;20072;-49